LYBE METAR and TAF weather

Enter ICAO airport designator

Example: see airport list

Station Type Date Time Source
LYBE METAR 2016/06/26 20:30 UTC NOAA

LYBE 262030Z 05008KT CAVOK 23/19 Q1013 NOSIG

Station Type Date Time Source
LYBE Decoded METAR 2016/06/26 20:30 UTC NOAA

Beograd / Surcin, Serbia and Montenegro (LYBE) 44-49N 020-17E 99M
Jun 26, 2016 - 04:30 PM EDT / 2016.06.26 2030 UTC
Wind: from the NE (050 degrees) at 9 MPH (8 KT):0
Visibility: greater than 7 mile(s):0
Temperature: 73 F (23 C)
Dew Point: 66 F (19 C)
Relative Humidity: 78%
Pressure (altimeter): 29.91 in. Hg (1013 hPa)
ob: LYBE 262030Z 05008KT CAVOK 23/19 Q1013 NOSIG
cycle: 20

Station Type Date Time Source
LYBE TAF 2016/06/26 18:21 UTC NOAA

TAF LYBE 261700Z 2618/2718 13006KT CAVOK TX30/2713Z TN20/2703Z PROB30
TEMPO 2619/2622 TSRA FEW030CB SCT033
BECMG 2709/2711 30012KT
TEMPO 2710/2716 33015G25KT 4000 TSRA SCT033CB BKN040